createdAt,value
2023-02-11T00:01:09.987Z,-1.74
2023-02-11T00:03:55.853Z,-1.81
2023-02-11T00:06:41.813Z,-1.78
2023-02-11T00:09:29.349Z,-1.96
2023-02-11T00:12:17.003Z,-2.23
2023-02-11T00:15:02.859Z,-2.41
2023-02-11T00:17:48.824Z,-2.07
2023-02-11T00:20:34.727Z,-1.88
2023-02-11T00:23:20.720Z,-2.04
2023-02-11T00:26:06.580Z,-2.14
2023-02-11T00:28:52.477Z,-2.05
2023-02-11T00:31:38.421Z,-2.10
2023-02-11T00:34:24.667Z,-2.09
2023-02-11T00:37:10.616Z,-2.32
2023-02-11T00:39:56.374Z,-2.40
2023-02-11T00:42:42.268Z,-2.25
2023-02-11T00:45:28.179Z,-2.15
2023-02-11T00:48:14.054Z,-2.35
2023-02-11T00:51:00.106Z,-2.49
2023-02-11T00:53:46.050Z,-2.56
2023-02-11T00:56:31.990Z,-2.52
2023-02-11T00:59:18.108Z,-2.52
2023-02-11T01:02:03.918Z,-2.62
2023-02-11T01:04:49.978Z,-2.63
2023-02-11T01:07:36.353Z,-2.60
2023-02-11T01:10:22.182Z,-2.60
2023-02-11T01:13:08.079Z,-2.47
2023-02-11T01:15:54.117Z,-2.28
2023-02-11T01:18:40.404Z,-2.18
2023-02-11T01:21:26.145Z,-2.17
2023-02-11T01:24:11.979Z,-2.16
2023-02-11T01:26:57.912Z,-2.07
2023-02-11T01:29:43.804Z,-2.15
2023-02-11T01:32:29.684Z,-2.47
2023-02-11T01:35:15.560Z,-2.80
2023-02-11T01:38:01.438Z,-2.92
2023-02-11T01:40:47.302Z,-3.02
2023-02-11T01:43:33.225Z,-2.90
2023-02-11T01:46:19.073Z,-2.89
2023-02-11T01:49:05.326Z,-2.88
2023-02-11T01:51:51.553Z,-2.74
2023-02-11T01:54:37.312Z,-2.66
2023-02-11T01:57:23.167Z,-2.62
2023-02-11T02:00:09.051Z,-2.52
2023-02-11T02:02:54.944Z,-2.42
2023-02-11T02:05:40.807Z,-2.35
2023-02-11T02:08:26.695Z,-2.35
2023-02-11T02:11:12.676Z,-2.33
2023-02-11T02:13:58.631Z,-2.35
2023-02-11T02:16:44.449Z,-2.47
2023-02-11T02:19:30.462Z,-2.40
2023-02-11T02:22:16.211Z,-2.37
2023-02-11T02:25:02.209Z,-2.33
2023-02-11T02:27:48.222Z,-2.42
2023-02-11T02:30:34.192Z,-2.32
2023-02-11T02:33:23.329Z,-2.58
2023-02-11T02:36:09.617Z,-2.77
2023-02-11T02:38:55.450Z,-2.71
2023-02-11T02:41:41.373Z,-2.67
2023-02-11T02:44:27.359Z,-2.60
2023-02-11T02:47:13.409Z,-2.50
2023-02-11T02:49:59.403Z,-2.36
2023-02-11T02:52:47.295Z,-2.25
2023-02-11T02:55:33.164Z,-2.27
2023-02-11T02:58:19.266Z,-2.23
2023-02-11T03:01:05.038Z,-2.50
2023-02-11T03:03:50.893Z,-2.63
2023-02-11T03:06:36.863Z,-2.79
2023-02-11T03:09:22.653Z,-2.99
2023-02-11T03:12:08.497Z,-3.00
2023-02-11T03:14:54.352Z,-2.50
2023-02-11T03:17:40.254Z,-2.19
2023-02-11T03:20:26.234Z,-2.27
2023-02-11T03:23:12.103Z,-2.33
2023-02-11T03:25:57.971Z,-2.22
2023-02-11T03:28:43.877Z,-2.44
2023-02-11T03:31:29.855Z,-2.58
2023-02-11T03:34:16.127Z,-2.66
2023-02-11T03:37:01.959Z,-2.48
2023-02-11T03:39:47.820Z,-2.25
2023-02-11T03:42:33.769Z,-1.69
2023-02-11T03:45:19.529Z,-1.38
2023-02-11T03:48:05.405Z,-1.14
2023-02-11T03:50:51.494Z,-0.41
2023-02-11T03:53:37.405Z,0.13
2023-02-11T03:56:23.343Z,0.28
2023-02-11T03:59:09.309Z,0.46
2023-02-11T04:01:55.209Z,0.58
2023-02-11T04:04:41.107Z,0.77
2023-02-11T04:07:26.822Z,1.00
2023-02-11T04:10:12.779Z,0.94
2023-02-11T04:13:18.932Z,0.12
2023-02-11T04:16:04.876Z,0.57
2023-02-11T04:18:50.831Z,0.06
2023-02-11T04:21:36.756Z,0.38
2023-02-11T04:24:22.622Z,-0.17
2023-02-11T04:27:08.714Z,-0.35
2023-02-11T04:29:54.685Z,-0.53
2023-02-11T04:32:40.534Z,-0.35
2023-02-11T04:35:26.542Z,-1.04
2023-02-11T04:38:12.379Z,-1.01
2023-02-11T04:40:58.419Z,-1.43
2023-02-11T04:43:44.362Z,-1.49
2023-02-11T04:46:30.268Z,-1.59
2023-02-11T04:49:16.277Z,-2.05
2023-02-11T04:52:04.252Z,-2.13
2023-02-11T04:54:50.086Z,-2.62
2023-02-11T04:57:36.147Z,-2.78
2023-02-11T05:00:22.049Z,-3.03
2023-02-11T05:03:07.970Z,-3.14
2023-02-11T05:05:53.911Z,-3.33
2023-02-11T05:08:39.645Z,-3.29
2023-02-11T05:11:25.689Z,-3.12
2023-02-11T05:14:11.532Z,-3.29
2023-02-11T05:16:57.472Z,-3.29
2023-02-11T05:19:43.728Z,-3.56
2023-02-11T05:22:29.610Z,-3.44
2023-02-11T05:25:15.482Z,-3.49
2023-02-11T05:28:01.356Z,-3.47
2023-02-11T05:30:47.204Z,-3.39
2023-02-11T05:33:33.192Z,-3.28
2023-02-11T05:36:19.277Z,-3.32
2023-02-11T05:39:05.067Z,-3.19
2023-02-11T05:41:51.066Z,-3.21
2023-02-11T05:44:37.017Z,-2.98
2023-02-11T05:47:23.318Z,-2.75
2023-02-11T05:50:09.279Z,-2.98
2023-02-11T05:52:55.094Z,-2.91
2023-02-11T05:55:41.422Z,-2.59
2023-02-11T05:58:27.485Z,-1.63
2023-02-11T06:01:13.275Z,-0.88
2023-02-11T06:03:59.268Z,-0.51
2023-02-11T06:06:45.290Z,-0.84
2023-02-11T06:09:31.124Z,-0.25
2023-02-11T06:12:17.026Z,-0.22
2023-02-11T06:15:02.879Z,0.31
2023-02-11T06:17:48.814Z,0.30
2023-02-11T06:20:34.719Z,0.21
2023-02-11T06:23:20.551Z,-0.68
2023-02-11T06:26:06.530Z,-1.75
2023-02-11T06:28:52.457Z,-2.12
2023-02-11T06:31:38.436Z,-1.43
2023-02-11T06:34:24.757Z,-0.82
2023-02-11T06:37:10.521Z,0.16
2023-02-11T06:39:56.440Z,0.63
2023-02-11T06:42:42.374Z,1.03
2023-02-11T06:45:28.182Z,1.29
2023-02-11T06:48:14.067Z,0.44
2023-02-11T06:50:59.920Z,-0.38
2023-02-11T06:53:47.924Z,-1.06
2023-02-11T06:56:33.760Z,-1.73
2023-02-11T06:59:19.676Z,-1.99
2023-02-11T07:02:05.762Z,-2.56
2023-02-11T07:04:51.766Z,-2.95
2023-02-11T07:07:37.689Z,-3.01
2023-02-11T07:10:23.698Z,-2.96
2023-02-11T07:13:09.656Z,-2.94
2023-02-11T07:15:55.649Z,-2.79
2023-02-11T07:18:41.801Z,-2.52
2023-02-11T07:21:27.616Z,-2.58
2023-02-11T07:24:13.637Z,-2.61
2023-02-11T07:26:59.636Z,-2.61
2023-02-11T07:29:45.425Z,-2.62
2023-02-11T07:32:31.467Z,-2.76
2023-02-11T07:35:17.400Z,-2.71
2023-02-11T07:38:03.335Z,-2.66
2023-02-11T07:40:49.241Z,-2.53
2023-02-11T07:43:35.270Z,-2.42
2023-02-11T07:46:21.388Z,-1.93
2023-02-11T07:49:07.664Z,-1.58
2023-02-11T07:51:53.510Z,-1.28
2023-02-11T07:54:39.475Z,-0.86
2023-02-11T07:57:25.354Z,-0.28
2023-02-11T08:00:11.313Z,0.01
2023-02-11T08:02:59.251Z,0.13
2023-02-11T08:05:45.102Z,0.35
2023-02-11T08:08:31.000Z,0.21
2023-02-11T08:11:16.988Z,-0.10
2023-02-11T08:14:02.958Z,-0.14
2023-02-11T08:16:49.003Z,-0.15
2023-02-11T08:19:35.322Z,-0.15
2023-02-11T08:22:21.235Z,-0.21
2023-02-11T08:25:07.198Z,-0.14
2023-02-11T08:27:53.158Z,0.17
2023-02-11T08:30:39.051Z,0.03
2023-02-11T08:33:26.934Z,0.09
2023-02-11T08:36:12.888Z,0.38
2023-02-11T08:39:12.141Z,0.51
2023-02-11T08:42:03.886Z,1.29
2023-02-11T08:44:49.998Z,1.21
2023-02-11T08:47:35.850Z,2.17
2023-02-11T08:50:21.756Z,1.29
2023-02-11T08:53:07.580Z,0.88
2023-02-11T08:55:53.648Z,1.06
2023-02-11T08:58:39.706Z,1.28
2023-02-11T09:01:25.701Z,1.43
2023-02-11T09:04:11.644Z,1.97
2023-02-11T09:06:57.564Z,1.81
2023-02-11T09:09:43.453Z,0.73
2023-02-11T09:12:29.330Z,1.04
2023-02-11T09:15:15.139Z,0.96
2023-02-11T09:18:00.919Z,1.27
2023-02-11T09:20:46.842Z,0.90
2023-02-11T09:23:32.798Z,1.01
2023-02-11T09:26:18.664Z,0.93
2023-02-11T09:29:04.602Z,1.53
2023-02-11T09:31:50.596Z,2.02
2023-02-11T09:34:36.820Z,2.37
2023-02-11T09:37:22.647Z,2.48
2023-02-11T09:40:08.617Z,2.42
2023-02-11T09:42:55.304Z,2.61
2023-02-11T09:45:41.949Z,2.78
2023-02-11T09:48:27.780Z,3.30
2023-02-11T09:51:13.635Z,3.16
2023-02-11T09:54:01.289Z,2.81
2023-02-11T09:56:48.258Z,2.81
2023-02-11T09:59:34.622Z,2.95
2023-02-11T10:02:20.543Z,2.83
2023-02-11T10:05:06.448Z,2.18
2023-02-11T10:07:52.269Z,2.08
2023-02-11T10:10:38.106Z,2.22
2023-02-11T10:13:24.073Z,2.67
2023-02-11T10:16:09.846Z,2.66
2023-02-11T10:18:55.754Z,2.67
2023-02-11T10:21:41.649Z,3.04
2023-02-11T10:24:27.488Z,3.13
2023-02-11T10:27:13.358Z,3.90
2023-02-11T10:29:59.266Z,4.30
2023-02-11T11:51:28.200Z,4.52
2023-02-11T11:54:14.219Z,3.88
2023-02-11T11:57:00.222Z,3.71
2023-02-11T11:59:46.083Z,4.50
2023-02-11T12:02:31.850Z,5.58
2023-02-11T12:05:17.710Z,4.45
2023-02-11T12:08:03.754Z,4.60
2023-02-11T12:10:49.989Z,5.57
2023-02-11T12:13:35.961Z,6.29
2023-02-11T12:16:22.060Z,5.96
2023-02-11T12:19:07.991Z,5.39
2023-02-11T12:21:53.937Z,6.07
2023-02-11T12:24:41.872Z,6.01
2023-02-11T12:27:27.801Z,6.79
2023-02-11T12:30:13.583Z,7.27
2023-02-11T12:32:59.614Z,7.43
2023-02-11T12:35:45.414Z,6.09
2023-02-11T12:38:31.307Z,6.69
2023-02-11T12:41:17.332Z,7.03
2023-02-11T12:44:03.177Z,7.46
2023-02-11T12:46:49.046Z,7.57
2023-02-11T12:49:34.848Z,8.14
2023-02-11T12:52:20.684Z,8.67
2023-02-11T12:55:06.536Z,9.13
2023-02-11T12:57:52.378Z,9.49
2023-02-11T13:00:38.241Z,9.52
2023-02-11T13:03:24.138Z,9.71
2023-02-11T13:06:09.941Z,10.22
2023-02-11T13:08:55.756Z,8.99
2023-02-11T13:11:41.602Z,9.95
2023-02-11T13:14:27.425Z,10.18
2023-02-11T13:17:13.298Z,10.53
2023-02-11T13:19:59.256Z,9.69
2023-02-11T13:22:45.082Z,8.72
2023-02-11T13:25:30.838Z,7.97
2023-02-11T13:28:16.902Z,7.00
2023-02-11T13:31:04.902Z,6.13
2023-02-11T13:33:53.190Z,5.68
2023-02-11T13:36:38.904Z,6.25
2023-02-11T13:39:24.812Z,6.16
2023-02-11T13:42:10.733Z,6.41
2023-02-11T13:44:56.491Z,6.62
2023-02-11T13:47:42.363Z,6.76
2023-02-11T13:50:28.170Z,6.94
2023-02-11T13:53:16.033Z,6.54
2023-02-11T13:56:02.163Z,6.78
2023-02-11T13:58:47.888Z,7.92
2023-02-11T14:01:33.851Z,7.98
2023-02-11T14:04:19.806Z,7.44
2023-02-11T14:07:05.671Z,6.90
2023-02-11T14:09:51.610Z,7.06
2023-02-11T14:12:37.512Z,7.37
2023-02-11T14:15:23.510Z,7.02
2023-02-11T14:18:09.391Z,7.72
2023-02-11T14:20:55.184Z,7.33
2023-02-11T14:23:41.146Z,7.10
2023-02-11T14:26:27.030Z,6.06
2023-02-11T14:29:12.769Z,6.96
2023-02-11T14:31:58.672Z,7.03
2023-02-11T14:34:44.911Z,7.32
2023-02-11T14:37:30.726Z,7.09
2023-02-11T14:40:16.702Z,7.42
2023-02-11T14:43:02.592Z,7.80
2023-02-11T14:45:48.588Z,7.71
2023-02-11T14:48:34.390Z,7.92
2023-02-11T14:51:20.323Z,9.02
2023-02-11T14:54:06.298Z,8.91
2023-02-11T14:56:52.123Z,8.16
2023-02-11T14:59:38.144Z,8.13
2023-02-11T15:02:24.200Z,7.84
2023-02-11T15:05:10.181Z,8.07
2023-02-11T15:07:56.133Z,7.51
2023-02-11T15:10:41.851Z,8.25
2023-02-11T15:13:27.833Z,7.45
2023-02-11T15:16:18.230Z,7.62
2023-02-11T15:19:04.322Z,7.84
2023-02-11T15:21:50.423Z,7.47
2023-02-11T15:24:36.332Z,7.86
2023-02-11T15:27:22.068Z,7.68
2023-02-11T15:30:07.966Z,7.59
2023-02-11T15:32:54.041Z,7.45
2023-02-11T15:35:40.128Z,7.32
2023-02-11T15:38:26.003Z,6.99
2023-02-11T15:41:11.975Z,7.32
2023-02-11T15:43:57.757Z,6.37
2023-02-11T15:46:43.751Z,6.99
2023-02-11T15:49:29.605Z,6.93
2023-02-11T15:52:15.493Z,6.93
2023-02-11T15:55:01.647Z,6.90
2023-02-11T15:57:47.446Z,6.99
2023-02-11T16:00:33.369Z,6.90
2023-02-11T16:03:19.930Z,6.81
2023-02-11T16:06:05.852Z,7.04
2023-02-11T16:08:51.848Z,7.37
2023-02-11T16:11:37.686Z,6.96
2023-02-11T16:14:23.606Z,6.99
2023-02-11T16:17:09.483Z,6.86
2023-02-11T16:19:55.484Z,6.66
2023-02-11T16:22:41.338Z,6.91
2023-02-11T16:25:27.003Z,7.02
2023-02-11T16:28:12.835Z,6.77
2023-02-11T16:31:01.533Z,7.06
2023-02-11T16:33:48.311Z,6.82
2023-02-11T16:36:34.124Z,7.02
2023-02-11T16:39:21.066Z,6.20
2023-02-11T16:42:07.620Z,5.32
2023-02-11T16:44:53.918Z,5.47
2023-02-11T16:47:39.810Z,5.53
2023-02-11T16:50:25.651Z,5.85
2023-02-11T16:53:11.497Z,6.16
2023-02-11T16:55:57.584Z,6.51
2023-02-11T16:58:43.462Z,5.67
2023-02-11T17:01:29.641Z,5.86
2023-02-11T17:04:15.901Z,5.41
2023-02-11T17:07:01.732Z,5.02
2023-02-11T17:09:47.623Z,4.98
2023-02-11T17:12:33.510Z,5.00
2023-02-11T17:15:19.445Z,4.93
2023-02-11T17:18:05.443Z,4.86
2023-02-11T17:20:51.156Z,5.27
2023-02-11T17:23:36.980Z,5.42
2023-02-11T17:26:22.818Z,5.07
2023-02-11T17:29:08.654Z,5.00
2023-02-11T17:31:54.678Z,4.77
2023-02-11T17:34:40.901Z,5.35
2023-02-11T17:37:26.778Z,4.90
2023-02-11T17:40:12.720Z,4.74
2023-02-11T17:42:58.594Z,4.02
2023-02-11T17:45:44.542Z,3.86
2023-02-11T17:48:30.504Z,4.22
2023-02-11T17:51:16.442Z,3.52
2023-02-11T17:54:02.366Z,3.11
2023-02-11T17:56:50.331Z,2.48
2023-02-11T17:59:36.749Z,2.57
2023-02-11T18:02:22.669Z,1.74
2023-02-11T18:05:10.403Z,2.08
2023-02-11T18:07:56.335Z,2.19
2023-02-11T18:10:42.160Z,2.37
2023-02-11T18:13:27.989Z,2.51
2023-02-11T18:16:13.882Z,2.42
2023-02-11T18:18:59.688Z,2.43
2023-02-11T18:21:45.611Z,3.03
2023-02-11T18:24:31.603Z,2.82
2023-02-11T18:27:17.455Z,2.51
2023-02-11T18:30:03.391Z,2.14
2023-02-11T18:32:49.297Z,2.21
2023-02-11T18:35:35.071Z,2.16
2023-02-11T18:38:21.156Z,2.04
2023-02-11T18:41:07.222Z,2.01
2023-02-11T18:43:53.119Z,2.03
2023-02-11T18:46:39.077Z,1.85
2023-02-11T18:49:24.990Z,1.56
2023-02-11T18:52:11.010Z,1.85
2023-02-11T18:54:57.042Z,2.21
2023-02-11T18:57:42.818Z,2.24
2023-02-11T19:00:28.681Z,2.38
2023-02-11T19:03:14.508Z,2.41
2023-02-11T19:06:00.456Z,1.87
2023-02-11T19:08:46.271Z,2.42
2023-02-11T19:11:32.217Z,3.01
2023-02-11T19:14:18.211Z,2.65
2023-02-11T19:17:04.217Z,1.98
2023-02-11T19:19:50.116Z,1.28
2023-02-11T19:22:38.058Z,1.07
2023-02-11T19:25:24.029Z,0.90
2023-02-11T19:28:09.849Z,1.09
2023-02-11T19:30:55.874Z,1.03
2023-02-11T19:33:42.183Z,1.06
2023-02-11T19:36:28.067Z,1.00
2023-02-11T19:39:14.040Z,1.13
2023-02-11T19:42:00.011Z,1.30
2023-02-11T19:44:45.904Z,1.55
2023-02-11T19:47:31.822Z,1.91
2023-02-11T19:50:17.741Z,2.54
2023-02-11T19:53:03.696Z,2.31
2023-02-11T19:55:50.035Z,1.97
2023-02-11T19:58:36.151Z,2.15
2023-02-11T20:01:22.254Z,1.85
2023-02-11T20:04:08.184Z,1.54
2023-02-11T20:06:54.162Z,1.62
2023-02-11T20:09:40.043Z,1.78
2023-02-11T20:12:25.987Z,2.26
2023-02-11T20:15:12.022Z,2.37
2023-02-11T20:17:57.697Z,1.93
2023-02-11T20:20:43.510Z,1.95
2023-02-11T20:23:29.255Z,2.07
2023-02-11T20:26:15.047Z,2.43
2023-02-11T20:29:01.074Z,3.05
2023-02-11T20:31:47.067Z,3.47
2023-02-11T20:34:33.424Z,3.54
2023-02-11T20:37:19.442Z,2.08
2023-02-11T20:40:05.188Z,1.53
2023-02-11T20:42:51.158Z,1.43
2023-02-11T20:45:37.032Z,1.51
2023-02-11T20:48:23.855Z,1.49
2023-02-11T20:51:09.742Z,0.86
2023-02-11T20:53:55.696Z,1.03
2023-02-11T20:56:41.558Z,1.49
2023-02-11T20:59:27.429Z,1.53
2023-02-11T21:02:13.262Z,1.44
2023-02-11T21:04:59.291Z,1.42
2023-02-11T21:07:45.299Z,1.42
2023-02-11T21:10:31.249Z,1.37
2023-02-11T21:13:17.367Z,1.44
2023-02-11T21:16:03.349Z,1.71
2023-02-11T21:18:49.291Z,1.28
2023-02-11T21:21:35.341Z,1.21
2023-02-11T21:24:21.121Z,1.42
2023-02-11T21:27:06.945Z,1.62
2023-02-11T21:29:54.516Z,1.68
2023-02-11T21:32:40.747Z,1.41
2023-02-11T21:35:26.629Z,1.27
2023-02-11T21:38:12.616Z,1.58
2023-02-11T21:40:58.429Z,1.62
2023-02-11T21:43:44.379Z,1.53
2023-02-11T21:46:30.277Z,1.27
2023-02-11T21:49:16.149Z,1.23
2023-02-11T21:52:02.061Z,1.30
2023-02-11T21:54:47.862Z,1.30
2023-02-11T21:57:33.764Z,1.41
2023-02-11T22:00:19.629Z,1.52
2023-02-11T22:03:05.514Z,1.45
2023-02-11T22:05:51.346Z,1.38
2023-02-11T22:08:37.066Z,1.29
2023-02-11T22:11:23.021Z,0.92
2023-02-11T22:14:08.875Z,0.96
2023-02-11T22:16:54.692Z,0.95
2023-02-11T22:19:40.637Z,0.69
2023-02-11T22:22:26.377Z,0.96
2023-02-11T22:25:12.289Z,1.33
2023-02-11T22:27:58.172Z,1.50
2023-02-11T22:30:44.111Z,1.42
2023-02-11T22:33:29.989Z,1.26
2023-02-11T22:36:15.843Z,1.24
2023-02-11T22:39:01.843Z,1.12
2023-02-11T22:41:47.753Z,1.20
2023-02-11T22:44:33.595Z,1.62
2023-02-11T22:47:19.406Z,1.77
2023-02-11T22:50:05.237Z,1.91
2023-02-11T22:52:51.001Z,2.01
2023-02-11T22:55:37.026Z,2.14
2023-02-11T22:58:22.904Z,2.13
2023-02-11T23:01:08.724Z,1.88
2023-02-11T23:03:54.516Z,1.60
2023-02-11T23:06:40.406Z,1.45
2023-02-11T23:09:26.302Z,1.54
2023-02-11T23:12:12.334Z,1.66
2023-02-11T23:14:58.235Z,1.62
2023-02-11T23:17:44.145Z,1.59
2023-02-11T23:20:30.087Z,1.61
2023-02-11T23:23:15.911Z,1.71
2023-02-11T23:26:02.030Z,1.72
2023-02-11T23:28:47.903Z,1.95
2023-02-11T23:31:34.196Z,2.19
2023-02-11T23:34:20.505Z,2.16
2023-02-11T23:37:06.375Z,2.37
2023-02-11T23:39:54.259Z,2.51
2023-02-11T23:42:40.155Z,2.55
2023-02-11T23:45:26.085Z,2.51
2023-02-11T23:48:12.056Z,2.19
2023-02-11T23:50:57.889Z,2.28
2023-02-11T23:54:27.182Z,2.33
2023-02-11T23:57:13.112Z,2.38
2023-02-11T23:59:58.825Z,2.31
